sensor_id;sensor_type;location;lat;lon;timestamp;pressure;altitude;pressure_sealevel;temperature;humidity
77452;BME280;66537;52.370;4.832;2023-01-15T00:00:47;99773.66;;;7.27;69.18
77452;BME280;66537;52.370;4.832;2023-01-15T00:03:12;99778.78;;;7.27;68.54
77452;BME280;66537;52.370;4.832;2023-01-15T00:05:37;99778.81;;;7.26;68.28
77452;BME280;66537;52.370;4.832;2023-01-15T00:08:03;99764.97;;;7.30;68.11
77452;BME280;66537;52.370;4.832;2023-01-15T00:10:28;99782.25;;;7.26;67.81
77452;BME280;66537;52.370;4.832;2023-01-15T00:12:54;99783.78;;;7.32;67.19
77452;BME280;66537;52.370;4.832;2023-01-15T00:15:19;99776.22;;;7.27;67.19
77452;BME280;66537;52.370;4.832;2023-01-15T00:17:44;99775.31;;;7.28;67.67
77452;BME280;66537;52.370;4.832;2023-01-15T00:20:10;99778.75;;;7.29;67.39
77452;BME280;66537;52.370;4.832;2023-01-15T00:22:36;99770.22;;;7.27;66.01
77452;BME280;66537;52.370;4.832;2023-01-15T00:25:01;99776.22;;;7.27;66.60
77452;BME280;66537;52.370;4.832;2023-01-15T00:27:45;99777.94;;;7.27;66.63
77452;BME280;66537;52.370;4.832;2023-01-15T00:30:12;99779.81;;;7.22;67.38
77452;BME280;66537;52.370;4.832;2023-01-15T00:32:39;99773.66;;;7.27;66.20
77452;BME280;66537;52.370;4.832;2023-01-15T00:35:05;99767.53;;;7.30;66.54
77452;BME280;66537;52.370;4.832;2023-01-15T00:37:31;99761.84;;;7.20;66.55
77452;BME280;66537;52.370;4.832;2023-01-15T00:39:56;99764.47;;;7.19;66.59
77452;BME280;66537;52.370;4.832;2023-01-15T00:42:22;99757.94;;;7.09;68.77
77452;BME280;66537;52.370;4.832;2023-01-15T00:44:47;99758.84;;;7.08;67.68
77452;BME280;66537;52.370;4.832;2023-01-15T00:47:12;99767.53;;;7.04;67.14
77452;BME280;66537;52.370;4.832;2023-01-15T00:49:41;99770.84;;;7.07;67.71
77452;BME280;66537;52.370;4.832;2023-01-15T00:52:06;99766.56;;;7.08;67.31
77452;BME280;66537;52.370;4.832;2023-01-15T00:54:32;99750.41;;;7.03;67.60
77452;BME280;66537;52.370;4.832;2023-01-15T00:56:58;99755.75;;;6.97;67.76
77452;BME280;66537;52.370;4.832;2023-01-15T00:59:24;99777.97;;;6.99;67.91
77452;BME280;66537;52.370;4.832;2023-01-15T01:01:49;99753.97;;;6.99;67.54
77452;BME280;66537;52.370;4.832;2023-01-15T01:04:15;99770.34;;;6.96;68.11
77452;BME280;66537;52.370;4.832;2023-01-15T01:06:40;99784.81;;;7.00;68.27
77452;BME280;66537;52.370;4.832;2023-01-15T01:09:06;99760.88;;;6.97;68.10
77452;BME280;66537;52.370;4.832;2023-01-15T01:11:31;99772.97;;;6.95;68.19
77452;BME280;66537;52.370;4.832;2023-01-15T01:13:59;99758.47;;;6.92;67.65
77452;BME280;66537;52.370;4.832;2023-01-15T01:16:31;99773.97;;;6.91;67.41
77452;BME280;66537;52.370;4.832;2023-01-15T01:19:01;99774.88;;;6.88;67.50
77452;BME280;66537;52.370;4.832;2023-01-15T01:21:28;99795.31;;;6.93;67.34
77452;BME280;66537;52.370;4.832;2023-01-15T01:23:54;99776.31;;;6.97;66.70
77452;BME280;66537;52.370;4.832;2023-01-15T01:26:21;99795.13;;;6.99;66.46
77452;BME280;66537;52.370;4.832;2023-01-15T01:28:48;99786.72;;;6.94;67.27
77452;BME280;66537;52.370;4.832;2023-01-15T01:31:14;99795.13;;;6.99;66.83
77452;BME280;66537;52.370;4.832;2023-01-15T01:33:39;99790.81;;;6.99;66.61
77452;BME280;66537;52.370;4.832;2023-01-15T01:36:05;99796.13;;;6.95;67.05
77452;BME280;66537;52.370;4.832;2023-01-15T01:38:30;99820.50;;;7.09;67.03
77452;BME280;66537;52.370;4.832;2023-01-15T01:40:56;99814.75;;;7.01;67.20
77452;BME280;66537;52.370;4.832;2023-01-15T01:43:24;99814.72;;;7.03;66.88
77452;BME280;66537;52.370;4.832;2023-01-15T01:45:50;99803.63;;;7.01;67.49
77452;BME280;66537;52.370;4.832;2023-01-15T01:48:17;99810.28;;;7.08;67.60
77452;BME280;66537;52.370;4.832;2023-01-15T01:50:45;99801.78;;;7.06;66.79
77452;BME280;66537;52.370;4.832;2023-01-15T01:53:16;99806.25;;;6.99;67.53
77452;BME280;66537;52.370;4.832;2023-01-15T01:55:44;99807.16;;;6.98;66.51
77452;BME280;66537;52.370;4.832;2023-01-15T01:58:11;99802.81;;;7.00;66.55
77452;BME280;66537;52.370;4.832;2023-01-15T02:00:40;99804.41;;;7.03;65.61
77452;BME280;66537;52.370;4.832;2023-01-15T02:03:08;99806.19;;;7.01;65.46
77452;BME280;66537;52.370;4.832;2023-01-15T02:05:39;99811.31;;;7.02;65.68
77452;BME280;66537;52.370;4.832;2023-01-15T02:08:06;99816.47;;;7.02;65.13
77452;BME280;66537;52.370;4.832;2023-01-15T02:10:32;99812.13;;;7.04;65.09
77452;BME280;66537;52.370;4.832;2023-01-15T02:13:25;99807.78;;;7.05;64.90
77452;BME280;66537;52.370;4.832;2023-01-15T02:16:02;99807.03;;;7.01;65.10
77452;BME280;66537;52.370;4.832;2023-01-15T02:27:11;99795.31;;;6.93;65.78
77452;BME280;66537;52.370;4.832;2023-01-15T02:32:38;99793.81;;;6.86;65.55
77452;BME280;66537;52.370;4.832;2023-01-15T02:35:12;99798.81;;;6.90;64.97
77452;BME280;66537;52.370;4.832;2023-01-15T02:37:45;99804.56;;;6.98;63.94
77452;BME280;66537;52.370;4.832;2023-01-15T02:40:13;99792.34;;;7.05;64.47
77452;BME280;66537;52.370;4.832;2023-01-15T02:42:39;99782.22;;;7.00;64.43
77452;BME280;66537;52.370;4.832;2023-01-15T02:45:08;99799.25;;;7.04;65.36
77452;BME280;66537;52.370;4.832;2023-01-15T02:47:37;99784.19;;;6.92;65.91
77452;BME280;66537;52.370;4.832;2023-01-15T02:50:06;99800.34;;;6.96;65.55
77452;BME280;66537;52.370;4.832;2023-01-15T02:52:36;99777.13;;;6.99;66.08
77452;BME280;66537;52.370;4.832;2023-01-15T02:55:12;99781.44;;;6.98;66.44
77452;BME280;66537;52.370;4.832;2023-01-15T02:57:41;99790.13;;;6.94;65.04
77452;BME280;66537;52.370;4.832;2023-01-15T03:00:10;99777.28;;;6.94;64.93
77452;BME280;66537;52.370;4.832;2023-01-15T03:02:45;99771.28;;;6.94;63.78
77452;BME280;66537;52.370;4.832;2023-01-15T03:05:22;99791.06;;;6.92;64.67
77452;BME280;66537;52.370;4.832;2023-01-15T03:07:59;99780.81;;;6.90;64.99
77452;BME280;66537;52.370;4.832;2023-01-15T03:10:40;99779.13;;;6.89;65.65
77452;BME280;66537;52.370;4.832;2023-01-15T03:13:11;99769.50;;;6.96;65.46
77452;BME280;66537;52.370;4.832;2023-01-15T03:15:49;99759.41;;;6.90;65.35
77452;BME280;66537;52.370;4.832;2023-01-15T03:19:06;99778.44;;;6.84;65.57
77452;BME280;66537;52.370;4.832;2023-01-15T03:22:22;99769.13;;;6.80;65.89
77452;BME280;66537;52.370;4.832;2023-01-15T03:27:02;99770.22;;;6.73;64.78
77452;BME280;66537;52.370;4.832;2023-01-15T03:29:32;99769.25;;;6.76;65.36
77452;BME280;66537;52.370;4.832;2023-01-15T03:31:59;99759.81;;;6.76;65.00
77452;BME280;66537;52.370;4.832;2023-01-15T03:34:32;99773.53;;;6.77;64.89
77452;BME280;66537;52.370;4.832;2023-01-15T03:37:00;99774.28;;;6.80;65.01
77452;BME280;66537;52.370;4.832;2023-01-15T03:39:26;99775.19;;;6.79;64.81
77452;BME280;66537;52.370;4.832;2023-01-15T03:50:05;99760.56;;;6.80;65.45
77452;BME280;66537;52.370;4.832;2023-01-15T03:52:49;99760.56;;;6.80;66.42
77452;BME280;66537;52.370;4.832;2023-01-15T03:55:27;99753.53;;;6.86;65.85
77452;BME280;66537;52.370;4.832;2023-01-15T03:57:59;99755.91;;;6.92;66.28
77452;BME280;66537;52.370;4.832;2023-01-15T04:00:33;99760.25;;;6.90;65.91
77452;BME280;66537;52.370;4.832;2023-01-15T04:03:01;99761.38;;;6.82;65.90
77452;BME280;66537;52.370;4.832;2023-01-15T04:05:28;99755.34;;;6.83;66.31
77452;BME280;66537;52.370;4.832;2023-01-15T04:07:56;99765.69;;;6.81;66.26
77452;BME280;66537;52.370;4.832;2023-01-15T04:10:22;99761.56;;;6.76;66.62
77452;BME280;66537;52.370;4.832;2023-01-15T04:12:48;99759.81;;;6.76;66.34
77452;BME280;66537;52.370;4.832;2023-01-15T04:15:14;99757.19;;;6.79;65.58
77452;BME280;66537;52.370;4.832;2023-01-15T04:17:39;99761.38;;;6.82;66.14
77452;BME280;66537;52.370;4.832;2023-01-15T04:20:05;99779.31;;;6.83;65.58
77452;BME280;66537;52.370;4.832;2023-01-15T04:22:31;99759.69;;;6.81;65.66
77452;BME280;66537;52.370;4.832;2023-01-15T04:24:57;99760.56;;;6.80;66.32
77452;BME280;66537;52.370;4.832;2023-01-15T04:27:22;99741.88;;;6.75;66.23
77452;BME280;66537;52.370;4.832;2023-01-15T04:29:48;99756.50;;;6.73;66.13
77452;BME280;66537;52.370;4.832;2023-01-15T04:32:13;99760.69;;;6.77;66.13
77452;BME280;66537;52.370;4.832;2023-01-15T04:34:39;99746.69;;;6.85;64.32
77452;BME280;66537;52.370;4.832;2023-01-15T04:37:04;99762.28;;;6.81;64.69
77452;BME280;66537;52.370;4.832;2023-01-15T04:39:30;99764.91;;;6.79;64.62
77452;BME280;66537;52.370;4.832;2023-01-15T04:41:55;99752.78;;;6.83;63.59
77452;BME280;66537;52.370;4.832;2023-01-15T04:44:39;99758.84;;;6.80;64.00
77452;BME280;66537;52.370;4.832;2023-01-15T04:47:05;99746.13;;;6.76;63.70
77452;BME280;66537;52.370;4.832;2023-01-15T04:49:30;99750.53;;;6.72;63.88
77452;BME280;66537;52.370;4.832;2023-01-15T04:51:56;99753.03;;;6.74;63.07
77452;BME280;66537;52.370;4.832;2023-01-15T04:54:21;99748.84;;;6.71;62.78
77452;BME280;66537;52.370;4.832;2023-01-15T04:56:50;99751.13;;;6.80;63.37
77452;BME280;66537;52.370;4.832;2023-01-15T04:59:18;99754.75;;;6.75;63.92
77452;BME280;66537;52.370;4.832;2023-01-15T05:01:44;99755.53;;;6.77;63.16
77452;BME280;66537;52.370;4.832;2023-01-15T05:04:09;99727.41;;;6.72;63.79
77452;BME280;66537;52.370;4.832;2023-01-15T05:06:38;99735.06;;;6.74;63.05
77452;BME280;66537;52.370;4.832;2023-01-15T05:09:04;99736.03;;;6.70;63.58
77452;BME280;66537;52.370;4.832;2023-01-15T05:11:30;99751.59;;;6.65;63.29
77452;BME280;66537;52.370;4.832;2023-01-15T05:13:55;99734.59;;;6.61;62.89
77452;BME280;66537;52.370;4.832;2023-01-15T05:16:23;99732.78;;;6.65;62.36
77452;BME280;66537;52.370;4.832;2023-01-15T05:18:50;99734.53;;;6.63;62.51
77452;BME280;66537;52.370;4.832;2023-01-15T05:21:18;99730.47;;;6.56;60.81
77452;BME280;66537;52.370;4.832;2023-01-15T05:23:45;99726.97;;;6.58;59.25
77452;BME280;66537;52.370;4.832;2023-01-15T05:26:11;99721.81;;;6.58;60.06
77452;BME280;66537;52.370;4.832;2023-01-15T05:28:36;99728.91;;;6.52;60.67
77452;BME280;66537;52.370;4.832;2023-01-15T05:31:08;99732.72;;;6.37;60.40
77452;BME280;66537;52.370;4.832;2023-01-15T05:33:35;99718.16;;;6.37;59.79
77452;BME280;66537;52.370;4.832;2023-01-15T05:36:05;99731.94;;;6.35;59.92
77452;BME280;66537;52.370;4.832;2023-01-15T05:38:31;99722.75;;;6.28;60.98
77452;BME280;66537;52.370;4.832;2023-01-15T05:40:56;99721.09;;;6.25;60.63
77452;BME280;66537;52.370;4.832;2023-01-15T05:43:22;99722.25;;;6.15;60.60
77452;BME280;66537;52.370;4.832;2023-01-15T05:45:47;99722.44;;;6.08;60.36
77452;BME280;66537;52.370;4.832;2023-01-15T05:48:13;99715.56;;;6.10;59.62
77452;BME280;66537;52.370;4.832;2023-01-15T05:50:38;99722.25;;;6.15;59.79
77452;BME280;66537;52.370;4.832;2023-01-15T05:53:03;99730.84;;;6.14;59.71
77452;BME280;66537;52.370;4.832;2023-01-15T05:55:32;99735.81;;;6.20;60.09
77452;BME280;66537;52.370;4.832;2023-01-15T05:57:58;99757.78;;;6.30;60.12
77452;BME280;66537;52.370;4.832;2023-01-15T06:00:23;99740.84;;;6.23;60.57
77452;BME280;66537;52.370;4.832;2023-01-15T06:02:50;99745.53;;;6.09;61.01
77452;BME280;66537;52.370;4.832;2023-01-15T06:05:16;99736.25;;;6.05;59.65
77452;BME280;66537;52.370;4.832;2023-01-15T06:07:49;99745.59;;;6.06;60.13
77452;BME280;66537;52.370;4.832;2023-01-15T06:10:17;99733.50;;;6.11;59.67
77452;BME280;66537;52.370;4.832;2023-01-15T06:12:42;99718.13;;;6.10;60.21
77452;BME280;66537;52.370;4.832;2023-01-15T06:15:09;99742.81;;;6.14;60.04
77452;BME280;66537;52.370;4.832;2023-01-15T06:17:34;99735.28;;;6.09;60.11
77452;BME280;66537;52.370;4.832;2023-01-15T06:20:00;99739.88;;;5.97;60.65
77452;BME280;66537;52.370;4.832;2023-01-15T06:22:25;99734.13;;;5.89;61.64
77452;BME280;66537;52.370;4.832;2023-01-15T06:24:50;99739.34;;;5.86;61.94
77452;BME280;66537;52.370;4.832;2023-01-15T06:27:16;99725.44;;;5.93;60.75
77452;BME280;66537;52.370;4.832;2023-01-15T06:29:41;99746.03;;;5.91;61.00
77452;BME280;66537;52.370;4.832;2023-01-15T06:32:06;99756.13;;;5.97;61.25
77452;BME280;66537;52.370;4.832;2023-01-15T06:34:32;99738.06;;;6.00;61.29
77452;BME280;66537;52.370;4.832;2023-01-15T06:36:57;99738.97;;;5.99;61.27
77452;BME280;66537;52.370;4.832;2023-01-15T06:39:22;99744.28;;;5.93;62.10
77452;BME280;66537;52.370;4.832;2023-01-15T06:41:48;99738.16;;;5.97;61.85
77452;BME280;66537;52.370;4.832;2023-01-15T06:44:32;99735.66;;;5.96;61.65
77452;BME280;66537;52.370;4.832;2023-01-15T06:47:19;99732.19;;;5.97;61.22
77452;BME280;66537;52.370;4.832;2023-01-15T06:49:46;99725.44;;;5.93;61.21
77452;BME280;66537;52.370;4.832;2023-01-15T06:52:12;99726.19;;;5.96;61.85
77452;BME280;66537;52.370;4.832;2023-01-15T06:54:37;99735.59;;;5.97;61.57
77452;BME280;66537;52.370;4.832;2023-01-15T06:57:03;99733.03;;;5.97;60.68
77452;BME280;66537;52.370;4.832;2023-01-15T06:59:28;99732.97;;;5.99;60.88
77452;BME280;66537;52.370;4.832;2023-01-15T07:01:54;99731.16;;;6.02;60.88
77452;BME280;66537;52.370;4.832;2023-01-15T07:04:19;99741.59;;;5.96;61.59
77452;BME280;66537;52.370;4.832;2023-01-15T07:06:45;99737.38;;;5.95;62.17
77452;BME280;66537;52.370;4.832;2023-01-15T07:09:11;99737.28;;;5.98;62.40
77452;BME280;66537;52.370;4.832;2023-01-15T07:11:36;99737.25;;;6.00;62.65
77452;BME280;66537;52.370;4.832;2023-01-15T07:14:14;99707.25;;;6.02;62.65
77452;BME280;66537;52.370;4.832;2023-01-15T07:16:40;99726.03;;;6.04;62.83
77452;BME280;66537;52.370;4.832;2023-01-15T07:19:05;99724.41;;;6.00;62.30
77452;BME280;66537;52.370;4.832;2023-01-15T07:21:30;99707.41;;;5.96;62.39
77452;BME280;66537;52.370;4.832;2023-01-15T07:24:00;99716.66;;;6.01;62.25
77452;BME280;66537;52.370;4.832;2023-01-15T07:26:26;99710.47;;;6.08;62.19
77452;BME280;66537;52.370;4.832;2023-01-15T07:28:51;99686.38;;;6.12;62.13
77452;BME280;66537;52.370;4.832;2023-01-15T07:31:17;99677.94;;;6.09;62.51
77452;BME280;66537;52.370;4.832;2023-01-15T07:33:42;99671.03;;;6.11;62.30
77452;BME280;66537;52.370;4.832;2023-01-15T07:36:08;99679.34;;;6.19;62.42
77452;BME280;66537;52.370;4.832;2023-01-15T07:38:33;99695.56;;;6.21;64.01
77452;BME280;66537;52.370;4.832;2023-01-15T07:40:59;99688.44;;;6.01;64.33
77452;BME280;66537;52.370;4.832;2023-01-15T07:43:43;99696.69;;;5.80;66.96
77452;BME280;66537;52.370;4.832;2023-01-15T07:46:28;99685.00;;;5.70;67.66
77452;BME280;66537;52.370;4.832;2023-01-15T07:49:12;99696.75;;;5.79;65.79
77452;BME280;66537;52.370;4.832;2023-01-15T07:51:56;99677.78;;;5.83;66.64
77452;BME280;66537;52.370;4.832;2023-01-15T07:54:23;99706.22;;;5.75;67.61
77452;BME280;66537;52.370;4.832;2023-01-15T07:56:49;99694.34;;;5.71;67.84
77452;BME280;66537;52.370;4.832;2023-01-15T07:59:15;99686.75;;;5.68;68.45
77452;BME280;66537;52.370;4.832;2023-01-15T08:01:41;99690.81;;;5.75;68.09
77452;BME280;66537;52.370;4.832;2023-01-15T08:04:06;99692.28;;;5.85;67.37
77452;BME280;66537;52.370;4.832;2023-01-15T08:06:31;99703.25;;;5.92;67.48
77452;BME280;66537;52.370;4.832;2023-01-15T08:08:57;99715.19;;;5.93;67.75
77452;BME280;66537;52.370;4.832;2023-01-15T08:11:22;99705.00;;;5.90;67.59
77452;BME280;66537;52.370;4.832;2023-01-15T08:14:08;99707.22;;;5.70;68.31
77452;BME280;66537;52.370;4.832;2023-01-15T08:16:52;99674.41;;;5.81;67.19
77452;BME280;66537;52.370;4.832;2023-01-15T08:19:17;99712.56;;;5.62;68.79
77452;BME280;66537;52.370;4.832;2023-01-15T08:21:42;99688.59;;;5.31;70.48
77452;BME280;66537;52.370;4.832;2023-01-15T08:24:23;99710.69;;;5.36;70.79
77452;BME280;66537;52.370;4.832;2023-01-15T08:26:49;99688.44;;;5.37;71.43
77452;BME280;66537;52.370;4.832;2023-01-15T08:29:15;99683.06;;;5.46;71.28
77452;BME280;66537;52.370;4.832;2023-01-15T08:31:40;99682.09;;;5.52;70.45
77452;BME280;66537;52.370;4.832;2023-01-15T08:34:06;99711.88;;;5.56;71.16
77452;BME280;66537;52.370;4.832;2023-01-15T08:36:32;99689.88;;;5.15;72.32
77452;BME280;66537;52.370;4.832;2023-01-15T08:38:57;99704.03;;;4.94;74.07
77452;BME280;66537;52.370;4.832;2023-01-15T08:41:23;99707.38;;;4.98;75.50
77452;BME280;66537;52.370;4.832;2023-01-15T08:43:48;99709.34;;;5.22;73.49
77452;BME280;66537;52.370;4.832;2023-01-15T08:46:13;99700.09;;;5.16;74.63
77452;BME280;66537;52.370;4.832;2023-01-15T08:48:39;99702.31;;;5.28;74.46
77452;BME280;66537;52.370;4.832;2023-01-15T08:51:06;99703.69;;;5.43;73.69
77452;BME280;66537;52.370;4.832;2023-01-15T08:53:31;99699.91;;;5.56;72.68
77452;BME280;66537;52.370;4.832;2023-01-15T08:55:57;99680.91;;;5.63;72.56
77452;BME280;66537;52.370;4.832;2023-01-15T08:58:22;99693.59;;;5.68;72.24
77452;BME280;66537;52.370;4.832;2023-01-15T09:00:48;99698.50;;;5.77;71.27
77452;BME280;66537;52.370;4.832;2023-01-15T09:03:14;99701.78;;;5.82;70.77
77452;BME280;66537;52.370;4.832;2023-01-15T09:05:39;99701.69;;;5.86;71.08
77452;BME280;66537;52.370;4.832;2023-01-15T09:08:08;99697.22;;;5.93;71.31
77452;BME280;66537;52.370;4.832;2023-01-15T09:10:33;99689.34;;;5.99;70.63
77452;BME280;66537;52.370;4.832;2023-01-15T09:13:00;99677.88;;;6.10;70.15
77452;BME280;66537;52.370;4.832;2023-01-15T09:15:29;99686.59;;;6.05;71.18
77452;BME280;66537;52.370;4.832;2023-01-15T09:17:56;99699.22;;;6.12;70.67
77452;BME280;66537;52.370;4.832;2023-01-15T09:20:21;99692.31;;;6.14;70.81
77452;BME280;66537;52.370;4.832;2023-01-15T09:22:47;99690.50;;;6.18;70.78
77452;BME280;66537;52.370;4.832;2023-01-15T09:25:13;99703.09;;;6.27;71.26
77452;BME280;66537;52.370;4.832;2023-01-15T09:27:40;99694.50;;;6.28;70.49
77452;BME280;66537;52.370;4.832;2023-01-15T09:30:07;99685.06;;;6.28;70.17
77452;BME280;66537;52.370;4.832;2023-01-15T09:32:33;99688.31;;;6.33;69.98
77452;BME280;66537;52.370;4.832;2023-01-15T09:34:58;99676.19;;;6.38;68.69
77452;BME280;66537;52.370;4.832;2023-01-15T09:37:24;99706.13;;;6.39;69.29
77452;BME280;66537;52.370;4.832;2023-01-15T09:39:49;99684.72;;;6.41;69.40
77452;BME280;66537;52.370;4.832;2023-01-15T09:47:22;99697.03;;;6.57;68.37
77452;BME280;66537;52.370;4.832;2023-01-15T09:52:58;99702.06;;;6.60;69.23
77452;BME280;66537;52.370;4.832;2023-01-15T09:55:28;99711.47;;;6.61;68.51
77452;BME280;66537;52.370;4.832;2023-01-15T09:57:58;99718.09;;;6.68;68.80
77452;BME280;66537;52.370;4.832;2023-01-15T10:00:26;99726.47;;;6.75;69.17
77452;BME280;66537;52.370;4.832;2023-01-15T10:02:59;99742.56;;;6.80;68.43
77452;BME280;66537;52.370;4.832;2023-01-15T10:10:47;99725.59;;;7.02;65.66
77452;BME280;66537;52.370;4.832;2023-01-15T10:13:33;99726.41;;;7.04;65.88
77452;BME280;66537;52.370;4.832;2023-01-15T10:16:02;99709.81;;;7.12;66.35
77452;BME280;66537;52.370;4.832;2023-01-15T10:18:28;99717.09;;;7.26;64.60
77452;BME280;66537;52.370;4.832;2023-01-15T10:23:33;99715.81;;;7.39;64.23
77452;BME280;66537;52.370;4.832;2023-01-15T10:26:10;99703.19;;;7.32;64.45
77452;BME280;66537;52.370;4.832;2023-01-15T10:31:20;99730.19;;;7.20;65.08
77452;BME280;66537;52.370;4.832;2023-01-15T10:42:10;99732.50;;;7.27;65.74
77452;BME280;66537;52.370;4.832;2023-01-15T10:44:45;99747.94;;;7.26;65.79
77452;BME280;66537;52.370;4.832;2023-01-15T10:47:17;99748.75;;;7.28;65.82
77452;BME280;66537;52.370;4.832;2023-01-15T10:49:43;99730.91;;;7.23;65.57
77452;BME280;66537;52.370;4.832;2023-01-15T10:52:21;99746.53;;;7.17;66.72
77452;BME280;66537;52.370;4.832;2023-01-15T10:54:52;99734.41;;;7.21;66.42
77452;BME280;66537;52.370;4.832;2023-01-15T11:00:09;99756.53;;;7.26;66.44
77452;BME280;66537;52.370;4.832;2023-01-15T11:02:53;99758.31;;;7.24;66.37
77452;BME280;66537;52.370;4.832;2023-01-15T11:05:20;99772.88;;;7.24;67.21
77452;BME280;66537;52.370;4.832;2023-01-15T11:07:46;99758.34;;;7.23;67.24
77452;BME280;66537;52.370;4.832;2023-01-15T11:10:15;99754.09;;;7.22;67.25
77452;BME280;66537;52.370;4.832;2023-01-15T11:12:55;99748.81;;;7.26;67.49
77452;BME280;66537;52.370;4.832;2023-01-15T11:15:39;99744.59;;;7.24;67.52
77452;BME280;66537;52.370;4.832;2023-01-15T11:18:32;99752.22;;;7.27;67.10
77452;BME280;66537;52.370;4.832;2023-01-15T11:21:20;99745.91;;;7.37;67.51
77452;BME280;66537;52.370;4.832;2023-01-15T11:23:47;99748.47;;;7.37;67.96
77452;BME280;66537;52.370;4.832;2023-01-15T11:26:20;99739.41;;;7.25;67.82
77452;BME280;66537;52.370;4.832;2023-01-15T11:28:46;99730.72;;;7.29;66.92
77452;BME280;66537;52.370;4.832;2023-01-15T11:31:13;99740.47;;;7.20;67.54
77452;BME280;66537;52.370;4.832;2023-01-15T11:33:39;99743.13;;;7.17;68.54
77452;BME280;66537;52.370;4.832;2023-01-15T11:36:20;99740.59;;;7.15;68.25
77452;BME280;66537;52.370;4.832;2023-01-15T11:38:47;99745.78;;;7.14;69.50
77452;BME280;66537;52.370;4.832;2023-01-15T11:41:23;99723.41;;;6.90;70.50
77452;BME280;66537;52.370;4.832;2023-01-15T11:44:10;99740.00;;;7.07;69.85
77452;BME280;66537;52.370;4.832;2023-01-15T11:46:54;99734.41;;;7.21;70.89
77452;BME280;66537;52.370;4.832;2023-01-15T11:49:38;99734.59;;;7.41;68.30
77452;BME280;66537;52.370;4.832;2023-01-15T11:52:23;99734.94;;;7.30;68.72
77452;BME280;66537;52.370;4.832;2023-01-15T11:54:52;99736.72;;;7.28;67.80
77452;BME280;66537;52.370;4.832;2023-01-15T11:57:24;99752.34;;;7.22;67.57
77452;BME280;66537;52.370;4.832;2023-01-15T11:59:50;99737.84;;;7.21;67.80
77452;BME280;66537;52.370;4.832;2023-01-15T12:02:36;99742.63;;;7.32;67.60
77452;BME280;66537;52.370;4.832;2023-01-15T12:05:17;99750.53;;;7.26;67.37
77452;BME280;66537;52.370;4.832;2023-01-15T12:07:44;99758.41;;;7.21;66.81
77452;BME280;66537;52.370;4.832;2023-01-15T12:12:50;99758.03;;;7.32;67.34
77452;BME280;66537;52.370;4.832;2023-01-15T12:15:39;99754.81;;;7.52;66.64
77452;BME280;66537;52.370;4.832;2023-01-15T12:21:17;99752.06;;;7.58;66.66
77452;BME280;66537;52.370;4.832;2023-01-15T12:27:04;99761.69;;;7.51;67.32
77452;BME280;66537;52.370;4.832;2023-01-15T12:29:28;99735.28;;;7.46;66.87
77452;BME280;66537;52.370;4.832;2023-01-15T12:32:06;99764.25;;;7.51;66.19
77452;BME280;66537;52.370;4.832;2023-01-15T12:34:48;99742.94;;;7.48;65.83
77452;BME280;66537;52.370;4.832;2023-01-15T12:37:20;99742.22;;;7.44;65.52
77452;BME280;66537;52.370;4.832;2023-01-15T12:42:44;99748.28;;;7.42;66.22
77452;BME280;66537;52.370;4.832;2023-01-15T12:45:35;99739.91;;;7.37;65.79
77452;BME280;66537;52.370;4.832;2023-01-15T12:48:12;99759.75;;;7.33;65.71
77452;BME280;66537;52.370;4.832;2023-01-15T12:50:46;99753.88;;;7.29;66.91
77452;BME280;66537;52.370;4.832;2023-01-15T12:55:59;99723.53;;;7.39;66.10
77452;BME280;66537;52.370;4.832;2023-01-15T13:01:30;99743.34;;;7.36;68.26
77452;BME280;66537;52.370;4.832;2023-01-15T13:06:42;99718.63;;;7.32;66.60
77452;BME280;66537;52.370;4.832;2023-01-15T13:09:17;99731.50;;;7.32;66.90
77452;BME280;66537;52.370;4.832;2023-01-15T13:11:47;99720.97;;;7.38;66.46
77452;BME280;66537;52.370;4.832;2023-01-15T13:14:23;99729.88;;;7.29;67.19
77452;BME280;66537;52.370;4.832;2023-01-15T13:20:02;99750.09;;;7.13;69.57
77452;BME280;66537;52.370;4.832;2023-01-15T13:23:04;99751.72;;;7.16;68.09
77452;BME280;66537;52.370;4.832;2023-01-15T13:25:39;99752.91;;;7.32;68.81
77452;BME280;66537;52.370;4.832;2023-01-15T13:30:59;99753.88;;;7.28;69.14
77452;BME280;66537;52.370;4.832;2023-01-15T13:33:32;99770.53;;;7.18;70.54
77452;BME280;66537;52.370;4.832;2023-01-15T13:38:35;99752.19;;;7.01;68.58
77452;BME280;66537;52.370;4.832;2023-01-15T13:41:05;99790.13;;;6.94;70.09
77452;BME280;66537;52.370;4.832;2023-01-15T13:43:41;99786.84;;;6.62;73.90
77452;BME280;66537;52.370;4.832;2023-01-15T13:46:12;99795.56;;;6.27;75.19
77452;BME280;66537;52.370;4.832;2023-01-15T13:48:45;99804.50;;;6.12;76.45
77452;BME280;66537;52.370;4.832;2023-01-15T13:51:28;99816.03;;;5.98;77.87
77452;BME280;66537;52.370;4.832;2023-01-15T13:53:56;99825.97;;;5.76;79.54
77452;BME280;66537;52.370;4.832;2023-01-15T13:56:32;99827.66;;;5.42;80.49
77452;BME280;66537;52.370;4.832;2023-01-15T13:59:05;99826.16;;;5.33;82.05
77452;BME280;66537;52.370;4.832;2023-01-15T14:01:46;99839.03;;;5.30;81.81
77452;BME280;66537;52.370;4.832;2023-01-15T14:06:48;99838.22;;;5.30;80.74
77452;BME280;66537;52.370;4.832;2023-01-15T14:09:27;99837.41;;;5.28;80.79
77452;BME280;66537;52.370;4.832;2023-01-15T14:15:20;99842.91;;;5.11;81.28
77452;BME280;66537;52.370;4.832;2023-01-15T14:18:14;99831.03;;;5.09;80.61
77452;BME280;66537;52.370;4.832;2023-01-15T14:28:37;99877.22;;;5.06;81.24
77452;BME280;66537;52.370;4.832;2023-01-15T14:36:44;99890.16;;;5.00;82.70
77452;BME280;66537;52.370;4.832;2023-01-15T14:39:34;99861.19;;;4.96;82.68
77452;BME280;66537;52.370;4.832;2023-01-15T14:42:13;99874.59;;;5.07;82.22
77452;BME280;66537;52.370;4.832;2023-01-15T14:45:05;99882.25;;;5.10;81.85
77452;BME280;66537;52.370;4.832;2023-01-15T14:47:35;99879.66;;;5.12;82.66
77452;BME280;66537;52.370;4.832;2023-01-15T14:50:37;99885.63;;;5.12;82.26
77452;BME280;66537;52.370;4.832;2023-01-15T14:55:36;99880.13;;;5.29;81.69
77452;BME280;66537;52.370;4.832;2023-01-15T14:58:06;99885.16;;;5.33;81.56
77452;BME280;66537;52.370;4.832;2023-01-15T15:00:41;99874.63;;;5.44;80.61
77452;BME280;66537;52.370;4.832;2023-01-15T15:03:20;99886.63;;;5.43;81.40
77452;BME280;66537;52.370;4.832;2023-01-15T15:05:47;99877.13;;;5.47;80.92
77452;BME280;66537;52.370;4.832;2023-01-15T15:08:15;99878.09;;;5.43;81.17